Time;durP1;ratioP1;P1;durP2;ratioP2;P2;SDS_P1;SDS_P2;PMS_P1;PMS_P2;Temp;Humidity;BMP_temperature;BMP_pressure;BME280_temperature;BME280_humidity;BME280_pressure;Samples;Min_cycle;Max_cycle;Signal;HPM_P1;HPM_P2
2023/08/20 00:01:41;;;;;;;27.50;24.70;;;;;;;22.69;67.44;100724.35;111375;1256;21964;-79
2023/08/20 00:04:29;;;;;;;28.20;22.50;;;;;;;22.67;67.45;100725.71;111231;1256;21981;-81
2023/08/20 00:07:07;;;;;;;24.60;22.20;;;;;;;22.67;67.58;100725.59;110873;1256;21981;-79
2023/08/20 00:09:47;;;;;;;24.40;22.20;;;;;;;22.67;67.73;100728.79;110946;1256;21966;-80
2023/08/20 00:12:28;;;;;;;25.30;22.70;;;;;;;22.66;67.79;100728.80;110705;1260;23696;-79
2023/08/20 00:15:11;;;;;;;26.20;23.90;;;;;;;22.65;67.89;100728.88;110501;1260;21963;-79
2023/08/20 00:18:00;;;;;;;24.70;22.60;;;;;;;22.62;67.99;100731.61;109983;1266;21981;-79
2023/08/20 00:20:45;;;;;;;23.30;21.00;;;;;;;22.62;68.13;100728.27;110398;1266;21965;-78
2023/08/20 00:23:21;;;;;;;26.20;23.70;;;;;;;22.61;68.20;100726.61;109894;1267;24472;-80
2023/08/20 00:25:52;;;;;;;27.80;25.30;;;;;;;22.58;68.22;100726.41;109845;1267;21973;-77
2023/08/20 00:28:29;;;;;;;24.60;22.30;;;;;;;22.57;68.25;100724.11;110127;1267;21973;-79
2023/08/20 00:31:08;;;;;;;23.40;21.50;;;;;;;22.54;68.24;100725.54;110191;1264;23656;-80
2023/08/20 00:34:08;;;;;;;25.80;23.60;;;;;;;22.47;68.26;100723.45;110513;1263;21968;-78
2023/08/20 00:36:44;;;;;;;26.40;24.10;;;;;;;22.43;68.32;100720.44;110602;1256;23600;-78
2023/08/20 00:39:21;;;;;;;25.50;23.00;;;;;;;22.39;68.55;100720.92;110801;1256;23473;-79
2023/08/20 00:42:07;;;;;;;24.80;22.40;;;;;;;22.36;68.71;100722.02;111135;1256;21982;-78
2023/08/20 00:44:41;;;;;;;28.20;25.10;;;;;;;22.33;68.80;100724.23;110807;1255;22996;-78
2023/08/20 00:47:25;;;;;;;27.60;25.10;;;;;;;22.32;68.99;100727.71;110875;1256;23996;-78
2023/08/20 00:49:56;;;;;;;28.70;26.10;;;;;;;22.31;69.05;100727.80;110751;1256;21998;-78
2023/08/20 00:52:33;;;;;;;28.80;26.20;;;;;;;22.24;68.88;100726.02;111017;1256;22272;-78
2023/08/20 00:55:22;;;;;;;27.80;25.30;;;;;;;22.18;68.85;100728.77;110893;1256;21957;-79
2023/08/20 00:58:11;;;;;;;28.60;25.80;;;;;;;22.12;68.97;100731.05;110952;1256;21946;-78
2023/08/20 01:01:07;;;;;;;28.50;25.50;;;;;;;22.06;68.98;100732.23;111029;1256;21929;-79
2023/08/20 01:03:48;;;;;;;26.50;24.10;;;;;;;22.02;69.02;100726.86;110998;1256;23088;-78
2023/08/20 01:06:56;;;;;;;29.20;26.60;;;;;;;21.97;69.05;100723.16;110878;1256;23026;-79
2023/08/20 01:10:04;;;;;;;28.70;26.10;;;;;;;21.95;69.18;100727.31;110875;1261;22177;-77
2023/08/20 01:12:47;;;;;;;29.00;26.20;;;;;;;21.89;69.36;100722.97;110520;1256;23004;-78
2023/08/20 01:15:26;;;;;;;27.80;25.10;;;;;;;21.88;69.42;100726.39;110389;1262;23296;-79
2023/08/20 01:17:59;;;;;;;29.20;26.50;;;;;;;21.86;69.28;100728.33;110491;1262;22962;-79
2023/08/20 01:20:48;;;;;;;29.70;27.10;;;;;;;21.84;69.33;100723.51;110466;1262;24289;-79
2023/08/20 01:23:49;;;;;;;28.60;26.30;;;;;;;21.81;69.44;100721.51;110504;1262;21990;-78
2023/08/20 01:27:12;;;;;;;29.00;26.50;;;;;;;21.73;69.46;100716.26;110599;1262;21974;-78
2023/08/20 01:29:56;;;;;;;28.30;26.00;;;;;;;21.69;69.57;100715.48;110130;1268;22173;-77
2023/08/20 01:32:37;;;;;;;29.90;27.20;;;;;;;21.67;69.71;100718.33;109873;1268;23749;-81
2023/08/20 01:35:19;;;;;;;30.70;27.80;;;;;;;21.64;69.79;100719.92;109922;1268;23631;-77
2023/08/20 01:38:14;;;;;;;30.50;27.90;;;;;;;21.61;69.81;100718.62;110074;1268;21978;-78
2023/08/20 01:40:56;;;;;;;30.10;27.40;;;;;;;21.60;69.89;100724.02;109690;1268;23580;-79
2023/08/20 01:43:43;;;;;;;32.50;29.10;;;;;;;21.57;70.02;100724.22;109873;1268;21992;-77
2023/08/20 01:46:15;;;;;;;29.80;27.00;;;;;;;21.55;70.08;100722.60;109834;1268;21982;-77
2023/08/20 01:48:50;;;;;;;28.20;25.70;;;;;;;21.53;70.11;100719.58;109778;1268;23634;-79
2023/08/20 01:51:26;;;;;;;29.60;27.10;;;;;;;21.51;70.04;100720.30;109182;1273;21822;-79
2023/08/20 01:54:08;;;;;;;32.00;29.00;;;;;;;21.46;70.15;100721.15;109614;1263;21973;-79
2023/08/20 01:56:41;;;;;;;29.80;27.40;;;;;;;21.45;70.32;100724.10;109534;1268;22114;-78
2023/08/20 01:59:14;;;;;;;;;;;;;;;21.44;70.43;100729.09;109843;1268;23087;-79
2023/08/20 02:01:49;;;;;;;30.50;27.60;;;;;;;21.33;70.69;100730.45;109435;1272;21996;-78
2023/08/20 02:04:30;;;;;;;31.50;28.50;;;;;;;21.32;70.67;100731.41;109394;1272;21998;-78
2023/08/20 02:07:07;;;;;;;31.80;29.00;;;;;;;21.33;70.86;100736.19;109363;1272;22098;-79
2023/08/20 02:09:57;;;;;;;31.60;28.70;;;;;;;21.32;70.81;100737.15;109553;1267;23021;-78
2023/08/20 02:12:37;;;;;;;31.50;28.80;;;;;;;21.32;70.94;100743.11;109364;1271;22000;-78
2023/08/20 02:15:13;;;;;;;32.90;29.90;;;;;;;21.30;70.89;100739.00;109645;1268;22057;-78
2023/08/20 02:17:52;;;;;;;30.10;27.50;;;;;;;21.29;70.88;100737.50;109737;1268;21986;-79
2023/08/20 02:20:36;;;;;;;31.60;28.90;;;;;;;21.26;70.94;100736.30;110158;1262;21970;-78
2023/08/20 02:23:10;;;;;;;30.10;27.50;;;;;;;21.25;71.01;100734.46;110405;1262;23824;-79
2023/08/20 02:25:53;;;;;;;29.90;27.50;;;;;;;21.21;71.00;100735.45;110135;1257;23062;-79
2023/08/20 02:28:39;;;;;;;32.90;29.50;;;;;;;21.17;71.16;100736.11;109746;1268;21972;-78
2023/08/20 02:31:12;;;;;;;31.40;28.60;;;;;;;21.15;71.17;100733.48;110038;1268;23795;-78
2023/08/20 02:34:03;;;;;;;30.60;27.80;;;;;;;21.12;71.21;100734.91;110036;1267;21973;-79
2023/08/20 02:36:48;;;;;;;31.10;28.10;;;;;;;21.10;71.35;100739.13;109914;1268;21971;-79
2023/08/20 02:39:26;;;;;;;31.90;29.30;;;;;;;21.08;71.36;100745.80;109486;1272;21981;-79
2023/08/20 02:42:06;;;;;;;30.70;28.10;;;;;;;21.06;71.33;100747.77;109392;1272;21989;-78
2023/08/20 02:44:42;;;;;;;34.10;30.70;;;;;;;21.04;71.35;100743.50;109866;1258;23133;-79
2023/08/20 02:47:23;;;;;;;30.80;28.10;;;;;;;21.01;71.45;100750.08;109486;1269;21975;-79
2023/08/20 02:49:56;;;;;;;31.70;28.90;;;;;;;20.99;71.42;100747.05;109429;1269;21975;-78
2023/08/20 02:52:29;;;;;;;32.40;29.70;;;;;;;20.97;71.48;100747.00;109326;1274;22001;-78
2023/08/20 02:55:15;;;;;;;32.50;29.90;;;;;;;20.93;71.42;100747.80;109103;1274;22074;-79
2023/08/20 02:57:48;;;;;;;32.40;29.60;;;;;;;20.92;71.67;100744.57;109350;1269;22189;-79
2023/08/20 03:00:22;;;;;;;33.70;30.70;;;;;;;20.92;71.73;100746.53;109794;1269;22102;-79
2023/08/20 03:03:07;;;;;;;42.30;38.70;;;;;;;20.92;71.96;100741.05;109440;1269;21981;-79
2023/08/20 03:05:51;;;;;;;33.00;30.30;;;;;;;20.87;72.09;100729.71;109996;1263;23687;-78
2023/08/20 03:08:34;;;;;;;33.00;30.20;;;;;;;20.88;72.06;100732.29;110510;1263;21964;-77
2023/08/20 03:11:16;;;;;;;31.40;28.80;;;;;;;20.94;72.10;100742.34;110489;1262;21981;-77
2023/08/20 03:13:52;;;;;;;30.70;28.00;;;;;;;20.92;72.06;100744.72;110206;1256;22747;-79
2023/08/20 03:16:38;;;;;;;29.90;27.50;;;;;;;20.90;72.08;100750.23;110276;1256;21968;-79
2023/08/20 03:19:19;;;;;;;31.40;28.70;;;;;;;20.87;72.10;100753.94;110547;1262;23684;-78
2023/08/20 03:21:58;;;;;;;30.20;27.60;;;;;;;20.88;72.35;100757.60;110630;1261;22397;-78
2023/08/20 03:24:31;;;;;;;29.20;26.60;;;;;;;20.89;72.35;100758.91;110548;1262;22069;-78
2023/08/20 03:27:08;;;;;;;31.20;28.50;;;;;;;20.89;72.26;100760.02;110642;1262;23719;-78
2023/08/20 03:29:47;;;;;;;31.10;28.00;;;;;;;20.88;72.28;100760.79;110656;1262;22317;-79
2023/08/20 03:32:21;;;;;;;31.10;27.70;;;;;;;20.88;72.33;100765.77;109879;1267;23045;-78
2023/08/20 03:35:03;;;;;;;30.30;27.30;;;;;;;20.84;72.25;100768.66;109383;1271;23148;-78
2023/08/20 03:37:35;;;;;;;28.30;25.70;;;;;;;20.81;72.29;100767.80;109416;1268;21947;-78
2023/08/20 03:40:13;;;;;;;29.60;26.90;;;;;;;20.80;72.38;100764.59;109957;1268;21995;-78
2023/08/20 03:42:49;;;;;;;29.70;27.10;;;;;;;20.77;72.43;100768.47;110125;1268;23612;-79
2023/08/20 03:45:24;;;;;;;29.10;26.20;;;;;;;20.77;72.49;100767.62;109720;1268;23061;-78
2023/08/20 03:48:08;;;;;;;30.20;27.20;;;;;;;20.76;72.69;100767.18;109979;1268;22042;-77
2023/08/20 03:50:39;;;;;;;30.00;27.10;;;;;;;20.73;72.65;100757.47;110167;1263;21976;-78
2023/08/20 03:53:38;;;;;;;29.60;26.80;;;;;;;20.76;72.74;100764.89;110048;1264;21978;-78
2023/08/20 03:56:21;;;;;;;28.30;25.40;;;;;;;20.74;72.72;100767.31;110220;1264;23048;-78
2023/08/20 03:59:09;;;;;;;28.40;25.50;;;;;;;20.73;72.80;100769.68;109877;1267;23712;-78
2023/08/20 04:01:55;;;;;;;29.00;26.50;;;;;;;20.66;72.91;100756.42;110061;1267;23074;-77
2023/08/20 04:04:31;;;;;;;30.50;27.40;;;;;;;20.74;72.84;100769.05;110013;1267;23726;-79
2023/08/20 04:07:08;;;;;;;28.30;25.80;;;;;;;20.74;72.88;100768.86;109839;1267;21967;-78
2023/08/20 04:09:44;;;;;;;29.40;26.50;;;;;;;20.75;72.84;100770.94;109183;1272;21986;-77
2023/08/20 04:12:28;;;;;;;29.90;27.30;;;;;;;20.75;72.83;100773.59;109731;1269;22987;-80
2023/08/20 04:15:05;;;;;;;31.80;28.80;;;;;;;20.76;72.83;100773.73;109769;1269;21976;-78
2023/08/20 04:17:50;;;;;;;30.00;27.60;;;;;;;20.77;72.88;100777.14;110136;1263;21961;-79
2023/08/20 04:20:42;;;;;;;30.80;28.10;;;;;;;20.79;72.88;100775.59;110459;1264;21983;-78
2023/08/20 04:23:31;;;;;;;;;;;;;;;;;;;;;
2023/08/20 04:26:22;;;;;;;29.80;27.20;;;;;;;20.86;73.12;100775.09;110582;1262;21998;-79
2023/08/20 04:29:30;;;;;;;29.40;26.50;;;;;;;20.92;73.15;100779.23;110992;1256;21971;-77
2023/08/20 04:32:39;;;;;;;35.30;32.30;;;;;;;20.96;73.05;100775.55;111147;1256;22098;-78
2023/08/20 04:35:55;;;;;;;34.10;31.10;;;;;;;21.02;73.02;100776.38;111084;1256;23687;-79
2023/08/20 04:39:05;;;;;;;34.00;30.90;;;;;;;21.04;72.90;100779.19;110479;1262;23706;-80
2023/08/20 04:41:48;;;;;;;35.50;32.30;;;;;;;21.08;72.82;100778.42;110545;1262;21971;-80
2023/08/20 04:44:26;;;;;;;33.00;30.00;;;;;;;21.12;72.71;100777.00;110740;1262;21963;-79
2023/08/20 04:47:23;;;;;;;35.00;31.90;;;;;;;21.21;72.84;100779.14;110320;1262;21968;-79
2023/08/20 04:50:20;;;;;;;36.40;33.30;;;;;;;21.31;72.78;100782.14;110711;1262;21949;-77
2023/08/20 04:52:59;;;;;;;34.10;30.70;;;;;;;21.39;72.45;100784.21;110273;1269;21970;-78
2023/08/20 04:55:40;;;;;;;32.50;29.60;;;;;;;21.48;72.40;100782.98;109839;1269;21976;-79
2023/08/20 04:58:19;;;;;;;34.30;31.40;;;;;;;21.60;72.27;100784.20;109628;1269;21937;-78
2023/08/20 05:01:09;;;;;;;;;;;;;;;;;;;;;
2023/08/20 05:03:56;;;;;;;32.30;29.40;;;;;;;21.81;71.80;100790.54;109710;1264;23589;-77
2023/08/20 05:06:51;;;;;;;34.50;31.40;;;;;;;21.91;71.63;100790.13;110562;1262;21963;-77
2023/08/20 05:09:37;;;;;;;32.10;28.90;;;;;;;22.03;71.62;100787.75;110518;1250;23031;-77
2023/08/20 05:12:13;;;;;;;32.20;29.10;;;;;;;22.17;71.38;100787.50;110774;1255;21999;-78
2023/08/20 05:14:52;;;;;;;33.00;29.60;;;;;;;22.30;71.12;100790.96;110916;1256;21980;-78
2023/08/20 05:17:39;;;;;;;30.90;27.80;;;;;;;22.41;70.77;100788.49;110964;1255;23741;-78
2023/08/20 05:20:19;;;;;;;31.40;28.50;;;;;;;22.51;70.44;100785.05;110908;1255;23046;-79
2023/08/20 05:23:12;;;;;;;31.10;27.60;;;;;;;22.55;70.34;100781.69;110860;1256;23007;-78
2023/08/20 05:26:20;;;;;;;;;;;;;;;;;;;;;
2023/08/20 05:29:06;;;;;;;32.80;29.90;;;;;;;22.81;69.64;100795.15;110328;1265;23032;-79
2023/08/20 05:32:26;;;;;;;31.90;29.20;;;;;;;22.94;69.40;100794.42;110329;1265;21944;-79
2023/08/20 05:35:47;;;;;;;30.80;28.20;;;;;;;23.10;69.26;100791.91;110212;1265;21970;-78
2023/08/20 05:38:37;;;;;;;28.60;26.10;;;;;;;23.31;69.10;100794.20;109343;1271;21989;-76
2023/08/20 05:41:30;;;;;;;29.20;26.80;;;;;;;23.54;68.75;100796.70;109482;1268;22031;-77
2023/08/20 05:44:38;;;;;;;31.80;29.10;;;;;;;23.75;68.33;100797.95;109250;1271;21981;-78
2023/08/20 05:47:34;;;;;;;29.20;26.70;;;;;;;23.94;67.73;100803.64;109482;1271;23628;-78
2023/08/20 05:50:37;;;;;;;30.60;27.90;;;;;;;24.15;67.31;100804.98;109736;1267;22140;-79
2023/08/20 05:53:21;;;;;;;27.10;24.70;;;;;;;24.40;67.11;100809.15;110130;1267;21975;-77
2023/08/20 05:56:00;;;;;;;27.20;24.50;;;;;;;24.72;66.35;100813.64;109897;1260;21988;-77
2023/08/20 05:58:35;;;;;;;27.00;24.80;;;;;;;24.99;65.97;100813.17;110240;1266;23696;-80
2023/08/20 06:01:22;;;;;;;28.70;25.90;;;;;;;25.26;64.95;100813.39;109972;1266;21987;-83
2023/08/20 06:04:03;;;;;;;27.70;25.10;;;;;;;25.55;64.09;100811.09;109817;1266;21971;-81
2023/08/20 06:06:39;;;;;;;28.00;25.50;;;;;;;25.87;63.48;100815.85;110266;1266;22430;-81
2023/08/20 06:09:19;;;;;;;28.10;25.40;;;;;;;26.23;62.28;100819.44;110423;1262;23021;-81
2023/08/20 06:12:02;;;;;;;24.70;22.30;;;;;;;26.58;61.44;100818.55;110780;1261;23041;-82
2023/08/20 06:14:59;;;;;;;23.90;21.80;;;;;;;27.04;60.32;100818.07;110798;1261;22156;-83
2023/08/20 06:17:40;;;;;;;27.80;24.80;;;;;;;27.42;59.18;100820.87;111208;1256;21983;-82
2023/08/20 06:20:24;;;;;;;21.40;19.20;;;;;;;27.82;58.39;100821.86;111349;1256;21970;-80
2023/08/20 06:23:07;;;;;;;21.60;19.60;;;;;;;28.28;57.37;100820.13;111277;1256;23631;-80
2023/08/20 06:25:37;;;;;;;18.70;17.00;;;;;;;28.75;56.07;100823.58;111285;1255;21997;-79
2023/08/20 06:28:30;;;;;;;19.00;14.40;;;;;;;29.11;54.03;100823.06;111192;1255;22389;-81
2023/08/20 06:31:23;;;;;;;15.90;14.30;;;;;;;29.29;52.47;100825.89;111369;1256;21960;-78
2023/08/20 06:33:54;;;;;;;15.20;13.80;;;;;;;29.59;52.49;100828.68;111200;1256;22952;-83
2023/08/20 06:36:31;;;;;;;13.30;12.30;;;;;;;29.96;50.74;100831.65;111081;1256;23679;-79
2023/08/20 06:39:16;;;;;;;12.90;11.60;;;;;;;30.15;49.20;100830.84;111249;1255;21978;-80
2023/08/20 06:41:53;;;;;;;13.40;12.00;;;;;;;30.44;48.82;100831.57;110772;1262;21992;-79
2023/08/20 06:44:36;;;;;;;11.20;10.20;;;;;;;30.67;47.62;100829.70;110874;1257;22298;-79
2023/08/20 06:47:17;;;;;;;13.00;10.30;;;;;;;30.97;47.65;100830.48;110604;1262;21952;-81
2023/08/20 06:50:14;;;;;;;10.70;9.80;;;;;;;31.33;46.92;100836.45;110507;1262;21946;-79
2023/08/20 06:53:07;;;;;;;10.60;9.70;;;;;;;31.66;45.68;100838.11;110992;1262;23613;-82
2023/08/20 06:55:59;;;;;;;11.00;10.10;;;;;;;32.01;44.89;100830.95;110925;1257;21989;-81
2023/08/20 06:58:51;;;;;;;11.20;10.20;;;;;;;32.23;44.42;100835.48;110819;1262;22012;-80
2023/08/20 07:01:29;;;;;;;9.50;8.40;;;;;;;32.42;43.70;100837.03;110970;1262;21963;-81
2023/08/20 07:04:05;;;;;;;9.00;8.10;;;;;;;32.55;43.80;100840.89;110176;1267;22023;-81
2023/08/20 07:06:38;;;;;;;9.70;8.80;;;;;;;32.79;43.23;100838.13;110242;1267;21944;-79
2023/08/20 07:09:38;;;;;;;;;;;;;;;;;;;;;
2023/08/20 07:12:23;;;;;;;14.80;13.20;;;;;;;33.14;41.46;100841.70;110081;1267;23014;-80
2023/08/20 07:15:37;;;;;;;8.60;7.50;;;;;;;33.20;41.09;100840.24;110417;1267;22049;-79
2023/08/20 07:18:42;;;;;;;11.80;7.60;;;;;;;33.34;40.92;100842.33;110588;1267;23198;-80
2023/08/20 07:21:27;;;;;;;9.10;7.10;;;;;;;33.55;40.83;100841.08;109322;1268;22678;-80
2023/08/20 07:24:34;;;;;;;10.00;6.80;;;;;;;33.80;40.07;100842.83;110142;1268;21980;-80
2023/08/20 07:27:21;;;;;;;7.80;7.00;;;;;;;33.99;38.97;100848.08;110661;1261;21975;-81
2023/08/20 07:30:09;;;;;;;9.00;7.10;;;;;;;33.94;38.88;100849.87;110639;1259;23128;-83
2023/08/20 07:33:08;;;;;;;9.60;7.20;;;;;;;34.07;39.30;100851.66;109531;1272;22487;-83
2023/08/20 07:36:06;;;;;;;9.50;7.70;;;;;;;34.32;38.68;100846.29;109659;1272;21983;-82
2023/08/20 07:38:59;;;;;;;7.60;6.90;;;;;;;34.47;38.66;100847.30;109497;1271;21978;-82
2023/08/20 07:41:44;;;;;;;8.50;7.70;;;;;;;34.71;38.40;100846.42;109730;1269;22461;-82
2023/08/20 07:44:24;;;;;;;9.40;7.00;;;;;;;34.87;37.64;100845.46;109683;1271;21974;-83
2023/08/20 07:47:20;;;;;;;10.80;7.80;;;;;;;34.90;37.76;100843.76;109734;1270;23643;-81
2023/08/20 07:49:58;;;;;;;11.50;7.00;;;;;;;34.95;37.72;100843.93;109787;1272;22003;-82
2023/08/20 07:52:41;;;;;;;;;;;;;;;;;;;;;
2023/08/20 07:55:24;;;;;;;7.80;7.10;;;;;;;35.21;37.26;100850.11;110107;1267;21991;-82
2023/08/20 07:58:29;;;;;;;9.80;6.90;;;;;;;35.23;36.39;100854.08;109744;1271;23706;-83
2023/08/20 08:01:20;;;;;;;8.80;6.90;;;;;;;35.18;36.34;100855.65;109727;1271;22776;-82
2023/08/20 08:04:21;;;;;;;8.30;7.40;;;;;;;35.24;36.22;100854.90;110172;1269;22448;-82
2023/08/20 08:07:21;;;;;;;7.10;6.30;;;;;;;35.42;35.64;100854.52;109988;1262;21977;-83
2023/08/20 08:10:14;;;;;;;7.00;6.40;;;;;;;35.53;35.32;100849.46;110769;1261;21956;-83
2023/08/20 08:14:11;;;;;;;10.00;5.70;;;;;;;35.57;34.67;100856.90;110598;1265;23033;-80
2023/08/20 08:17:28;;;;;;;6.60;6.00;;;;;;;35.62;34.94;100857.85;110856;1262;22097;-84
2023/08/20 08:20:51;;;;;;;;;;;;;;;;;;;;;
2023/08/20 08:24:09;;;;;;;7.10;6.50;;;;;;;35.78;35.10;100853.77;110937;1262;21981;-82
2023/08/20 08:27:13;;;;;;;10.70;6.20;;;;;;;35.77;35.04;100851.70;109828;1268;23709;-82
2023/08/20 08:29:56;;;;;;;8.30;6.70;;;;;;;35.91;34.74;100851.01;110189;1268;21983;-83
2023/08/20 08:32:59;;;;;;;6.30;5.80;;;;;;;36.03;34.79;100852.55;109789;1270;22046;-83
2023/08/20 08:36:18;;;;;;;7.10;6.20;;;;;;;36.06;34.37;100853.59;110025;1269;21992;-83
2023/08/20 08:39:28;;;;;;;6.60;5.90;;;;;;;36.11;34.44;100854.70;109888;1269;21997;-83
2023/08/20 08:42:45;;;;;;;7.20;6.50;;;;;;;36.20;33.46;100854.65;109240;1278;22012;-83
2023/08/20 08:48:55;;;;;;;8.40;6.10;;;;;;;36.15;33.88;100856.91;108962;1283;21998;-84
2023/08/20 08:52:10;;;;;;;10.50;6.10;;;;;;;36.16;33.94;100854.27;109282;1276;21981;-83
2023/08/20 08:55:34;;;;;;;;;;;;;;;;;;;;;
2023/08/20 08:58:48;;;;;;;;;;;;;;;;;;;;;
2023/08/20 09:01:56;;;;;;;6.00;5.30;;;;;;;36.33;33.09;100858.73;110279;1266;21977;-84
2023/08/20 09:04:51;;;;;;;7.00;5.80;;;;;;;36.32;32.97;100858.16;110499;1266;23003;-83
2023/08/20 09:08:27;;;;;;;7.00;6.00;;;;;;;36.33;32.97;100861.13;110634;1260;21975;-85
2023/08/20 09:11:53;;;;;;;6.70;5.80;;;;;;;36.17;33.72;100856.88;109383;1274;22013;-83
2023/08/20 09:15:41;;;;;;;97.10;14.20;;;;;;;36.39;33.61;100860.16;109557;1274;22403;-83
2023/08/20 09:18:27;;;;;;;13.60;6.30;;;;;;;36.59;32.83;100862.70;109533;1274;22008;-83
2023/08/20 09:21:12;;;;;;;7.50;6.10;;;;;;;36.70;32.62;100864.76;110074;1270;21995;-86
2023/08/20 09:24:00;;;;;;;8.00;6.00;;;;;;;36.65;31.94;100856.45;109526;1274;22014;-83
2023/08/20 09:26:50;;;;;;;8.80;5.80;;;;;;;36.58;32.34;100861.20;109059;1279;22008;-83
2023/08/20 09:29:48;;;;;;;6.80;6.10;;;;;;;36.49;32.86;100859.29;109181;1274;22235;-83
2023/08/20 09:32:27;;;;;;;13.10;7.00;;;;;;;36.26;32.68;100859.39;109450;1274;21965;-82
2023/08/20 09:35:08;;;;;;;8.40;5.50;;;;;;;36.09;33.31;100867.37;109433;1273;23640;-82
2023/08/20 09:38:00;;;;;;;;;;;;;;;;;;;;;
2023/08/20 09:41:01;;;;;;;;;;;;;;;;;;;;;
2023/08/20 09:47:35;;;;;;;10.90;6.80;;;;;;;35.90;33.38;100866.17;110741;1263;22222;-85
2023/08/20 09:50:40;;;;;;;8.70;6.10;;;;;;;36.04;33.11;100867.73;110598;1265;21971;-84
2023/08/20 09:53:56;;;;;;;13.00;6.50;;;;;;;36.16;32.70;100859.84;110386;1265;21948;-84
2023/08/20 09:56:39;;;;;;;6.50;6.00;;;;;;;36.25;32.36;100859.98;109777;1270;23014;-82
2023/08/20 09:59:30;;;;;;;7.00;6.10;;;;;;;36.26;32.13;100856.13;109655;1271;21979;-86
2023/08/20 10:02:38;;;;;;;10.70;6.70;;;;;;;36.19;31.80;100855.15;109411;1276;22037;-83
2023/08/20 10:06:15;;;;;;;11.50;6.50;;;;;;;36.16;32.04;100856.66;109536;1276;21990;-86
2023/08/20 10:09:27;;;;;;;6.70;6.00;;;;;;;35.97;32.11;100851.79;109380;1277;23644;-85
2023/08/20 10:12:38;;;;;;;7.30;6.60;;;;;;;35.70;31.94;100851.26;109407;1276;22066;-87
2023/08/20 10:15:55;;;;;;;6.70;6.20;;;;;;;35.47;32.34;100846.02;109737;1270;22000;-83
2023/08/20 10:19:00;;;;;;;;;;;;;;;;;;;;;
2023/08/20 10:22:29;;;;;;;7.70;6.90;;;;;;;35.17;33.76;100843.88;110801;1261;22747;-85
2023/08/20 10:26:08;;;;;;;8.60;7.10;;;;;;;35.10;33.57;100842.89;111197;1259;21979;-85
2023/08/20 10:29:39;;;;;;;9.40;6.10;;;;;;;35.13;33.91;100842.27;111441;1259;22936;-86
2023/08/20 10:33:36;;;;;;;7.20;6.50;;;;;;;34.96;33.61;100831.59;111375;1259;22294;-84
2023/08/20 10:37:48;;;;;;;7.70;6.00;;;;;;;34.92;34.21;100838.02;110457;1269;21986;-82
2023/08/20 10:41:05;;;;;;;7.80;6.50;;;;;;;34.91;34.48;100826.79;110342;1269;21953;-85
2023/08/20 10:45:04;;;;;;;7.50;6.10;;;;;;;35.09;33.88;100841.31;109821;1272;22201;-86
2023/08/20 10:47:48;;;;;;;6.50;6.00;;;;;;;35.18;33.92;100840.05;109266;1279;23824;-84
2023/08/20 10:50:55;;;;;;;5.40;5.00;;;;;;;35.29;33.55;100836.00;109234;1282;22292;-85
2023/08/20 10:54:06;;;;;;;8.40;6.20;;;;;;;35.30;33.34;100832.36;109319;1282;22050;-85
2023/08/20 10:57:16;;;;;;;8.10;5.90;;;;;;;35.34;33.18;100834.95;109253;1282;21992;-86
2023/08/20 11:00:29;;;;;;;5.80;5.30;;;;;;;35.26;32.82;100832.45;109152;1282;23667;-85
2023/08/20 11:03:15;;;;;;;8.50;6.70;;;;;;;35.17;32.92;100835.92;109206;1282;22084;-84
2023/08/20 11:05:57;;;;;;;8.90;6.60;;;;;;;35.16;32.76;100835.06;109192;1282;23641;-84
2023/08/20 11:09:42;;;;;;;;;;;;;;;;;;;;;
2023/08/20 11:12:38;;;;;;;10.10;7.40;;;;;;;34.98;33.46;100836.67;108920;1274;22009;-79
2023/08/20 11:15:24;;;;;;;7.60;6.80;;;;;;;34.87;34.01;100838.21;110375;1263;23728;-77
2023/08/20 11:18:07;;;;;;;7.40;5.80;;;;;;;34.75;34.29;100836.73;110643;1261;22016;-85
2023/08/20 11:21:08;;;;;;;7.00;6.30;;;;;;;34.63;34.46;100834.26;110428;1267;23841;-81
2023/08/20 11:24:40;;;;;;;7.60;6.70;;;;;;;34.50;33.97;100833.71;109627;1271;23647;-78
2023/08/20 11:27:49;;;;;;;6.90;6.30;;;;;;;34.29;34.03;100829.89;109179;1276;23819;-76
2023/08/20 11:31:08;;;;;;;5.90;5.40;;;;;;;34.13;34.43;100824.77;108889;1276;22017;-78
2023/08/20 11:34:14;;;;;;;12.80;6.40;;;;;;;34.05;34.41;100822.42;108952;1276;23736;-79
2023/08/20 11:37:26;;;;;;;5.80;5.30;;;;;;;33.91;34.88;100814.91;108483;1283;22093;-78
2023/08/20 11:40:21;;;;;;;6.60;6.00;;;;;;;33.86;34.66;100814.98;108455;1286;22993;-78
2023/08/20 11:43:11;;;;;;;6.30;5.70;;;;;;;33.77;34.81;100815.00;108262;1285;22760;-78
2023/08/20 11:46:05;;;;;;;10.20;7.10;;;;;;;33.69;34.91;100819.16;107981;1289;22012;-84
2023/08/20 11:49:55;;;;;;;7.00;6.30;;;;;;;33.67;35.18;100819.60;108469;1291;22022;-80
2023/08/20 11:52:56;;;;;;;7.10;6.10;;;;;;;33.62;35.16;100818.76;108108;1286;23472;-79
2023/08/20 11:55:47;;;;;;;7.00;6.40;;;;;;;33.53;35.58;100819.02;108203;1287;22015;-79
2023/08/20 11:58:34;;;;;;;7.10;6.50;;;;;;;33.45;35.40;100814.98;108583;1287;23637;-82
2023/08/20 12:01:16;;;;;;;8.90;5.90;;;;;;;33.30;35.71;100811.83;108245;1288;22998;-79
2023/08/20 12:04:44;;;;;;;7.60;5.60;;;;;;;33.20;36.05;100808.25;107796;1290;22022;-77
2023/08/20 12:08:35;;;;;;;8.40;6.50;;;;;;;33.22;35.61;100808.35;108122;1292;22874;-77
2023/08/20 12:11:48;;;;;;;7.20;6.20;;;;;;;33.22;35.50;100800.27;107707;1294;22088;-78
2023/08/20 12:14:54;;;;;;;9.90;7.10;;;;;;;33.31;35.16;100807.30;108460;1287;21968;-79
2023/08/20 12:17:41;;;;;;;10.10;6.10;;;;;;;33.33;35.31;100807.54;108431;1284;21902;-80
2023/08/20 12:20:32;;;;;;;6.90;6.30;;;;;;;33.27;35.67;100800.65;108975;1278;22004;-79
2023/08/20 12:23:36;;;;;;;8.30;6.40;;;;;;;33.23;35.37;100798.91;109715;1267;22097;-77
2023/08/20 12:26:44;;;;;;;;;;;;;;;33.13;35.55;100796.77;110158;1264;23096;-77
2023/08/20 12:32:52;;;;;;;7.40;6.70;;;;;;;32.88;35.65;100799.00;110070;1263;22141;-77
2023/08/20 12:35:35;;;;;;;7.60;6.30;;;;;;;32.81;35.97;100799.64;110560;1263;22996;-77
2023/08/20 12:38:43;;;;;;;;;;;;;;;;;;;;;
2023/08/20 12:41:44;;;;;;;6.20;5.60;;;;;;;32.68;36.20;100795.52;109873;1269;22003;-78
2023/08/20 12:44:20;;;;;;;6.80;6.10;;;;;;;32.68;36.38;100789.51;109648;1265;23739;-78
2023/08/20 12:47:00;;;;;;;8.40;7.00;;;;;;;32.74;36.26;100788.82;109322;1269;21981;-79
2023/08/20 12:49:46;;;;;;;8.20;7.40;;;;;;;32.77;36.25;100788.26;109229;1274;23628;-78
2023/08/20 12:52:39;;;;;;;7.70;6.00;;;;;;;32.81;36.42;100787.35;109918;1269;24083;-79
2023/08/20 12:55:30;;;;;;;6.10;5.50;;;;;;;32.88;36.09;100782.58;109018;1270;22965;-78
2023/08/20 12:58:11;;;;;;;6.70;6.10;;;;;;;32.88;35.87;100781.86;109052;1275;22774;-79
2023/08/20 13:00:43;;;;;;;7.50;6.50;;;;;;;32.88;35.95;100782.52;109473;1257;23078;-80
2023/08/20 13:03:28;;;;;;;5.80;5.30;;;;;;;32.89;36.06;100780.26;109603;1267;21935;-78
2023/08/20 13:06:04;;;;;;;6.10;5.20;;;;;;;32.92;35.67;100780.24;109149;1274;23002;-78
2023/08/20 13:08:48;;;;;;;6.60;6.00;;;;;;;32.96;35.60;100778.95;108720;1279;21988;-78
2023/08/20 13:11:28;;;;;;;7.50;6.70;;;;;;;33.02;35.51;100779.91;108737;1279;22969;-77
2023/08/20 13:14:10;;;;;;;6.50;5.80;;;;;;;33.04;35.45;100785.16;109490;1268;22743;-79
2023/08/20 13:16:46;;;;;;;5.40;5.00;;;;;;;33.05;35.28;100785.14;109624;1268;21941;-79
2023/08/20 13:19:24;;;;;;;10.00;9.10;;;;;;;33.04;35.25;100781.80;110033;1268;21939;-79
2023/08/20 13:22:09;;;;;;;6.80;6.20;;;;;;;33.00;35.46;100780.17;109614;1270;21997;-78
2023/08/20 13:24:53;;;;;;;7.70;5.30;;;;;;;32.95;35.70;100778.56;109430;1265;23610;-78
2023/08/20 13:27:27;;;;;;;5.60;5.10;;;;;;;32.91;35.74;100781.60;110090;1266;22693;-78
2023/08/20 13:30:12;;;;;;;8.20;6.00;;;;;;;32.91;35.69;100777.81;110148;1260;21973;-79